Time;durP1;ratioP1;P1;durP2;ratioP2;P2;SDS_P1;SDS_P2;PMS_P1;PMS_P2;Temp;Humidity;BMP_temperature;BMP_pressure;BME280_temperature;BME280_humidity;BME280_pressure;Samples;Min_cycle;Max_cycle;Signal;HPM_P1;HPM_P2
2023/03/27 00:02:21;;;;;;;6.82;2.42;;;4.20;99.90;;;;;;5153704;27;20141;-70
2023/03/27 00:04:47;;;;;;;7.80;3.03;;;4.20;99.90;;;;;;5154087;27;20147;-70
2023/03/27 00:07:13;;;;;;;5.28;2.63;;;4.30;99.90;;;;;;5135087;27;20043;-69
2023/03/27 00:09:39;;;;;;;4.50;2.80;;;4.30;99.90;;;;;;5153736;27;20057;-70
2023/03/27 00:12:05;;;;;;;5.82;2.03;;;4.40;99.90;;;;;;5153936;27;20038;-70
2023/03/27 00:14:31;;;;;;;6.40;2.45;;;4.40;99.90;;;;;;5153901;27;20043;-70
2023/03/27 00:16:58;;;;;;;5.20;2.45;;;4.40;99.90;;;;;;5153565;27;20097;-70
2023/03/27 00:19:27;;;;;;;4.25;2.03;;;4.50;99.90;;;;;;5153502;27;20058;-70
2023/03/27 00:21:53;;;;;;;6.28;2.58;;;4.50;99.90;;;;;;5153914;27;20122;-70
2023/03/27 00:24:19;;;;;;;5.55;2.17;;;4.50;99.90;;;;;;5153525;27;20535;-70
2023/03/27 00:26:44;;;;;;;3.70;2.30;;;4.50;99.90;;;;;;5154020;27;20039;-70
2023/03/27 00:29:12;;;;;;;6.35;2.58;;;4.50;99.90;;;;;;5153717;27;20047;-70
2023/03/27 00:31:38;;;;;;;4.90;2.28;;;4.50;99.90;;;;;;5153673;27;20473;-70
2023/03/27 00:34:04;;;;;;;5.60;2.15;;;4.40;99.90;;;;;;5153538;27;20051;-69
2023/03/27 00:36:30;;;;;;;6.03;2.53;;;4.40;99.90;;;;;;5153526;27;20045;-70
2023/03/27 00:38:56;;;;;;;8.27;1.98;;;4.70;99.90;;;;;;5157233;27;20054;-70
2023/03/27 00:41:22;;;;;;;4.93;2.42;;;4.40;99.90;;;;;;5157915;27;20054;-70
2023/03/27 00:43:52;;;;;;;8.57;2.40;;;4.40;99.90;;;;;;5157353;27;20038;-70
2023/03/27 00:46:26;;;;;;;8.75;2.22;;;4.40;99.90;;;;;;5157086;27;20038;-70
2023/03/27 00:48:54;;;;;;;2.70;1.85;;;4.40;99.90;;;;;;5157470;27;20055;-70
2023/03/27 00:51:22;;;;;;;7.93;2.20;;;4.40;99.90;;;;;;5138692;27;20074;-70
2023/03/27 00:53:49;;;;;;;6.10;1.95;;;4.50;99.90;;;;;;5138727;27;20530;-70
2023/03/27 00:56:16;;;;;;;8.68;2.50;;;4.20;99.90;;;;;;5156996;27;20039;-70
2023/03/27 00:58:46;;;;;;;7.90;2.35;;;4.20;99.90;;;;;;5157008;27;20082;-70
2023/03/27 01:01:14;;;;;;;7.03;2.63;;;4.20;99.90;;;;;;5156938;27;20086;-70
2023/03/27 01:03:43;;;;;;;7.05;1.95;;;4.20;99.90;;;;;;5156724;27;20043;-70
2023/03/27 01:06:10;;;;;;;5.35;2.40;;;4.20;99.90;;;;;;5157251;27;20145;-69
2023/03/27 01:08:36;;;;;;;4.07;2.40;;;4.20;99.90;;;;;;5156522;27;20062;-70
2023/03/27 01:11:32;;;;;;;6.78;2.40;;;4.20;99.90;;;;;;5138164;27;20054;-70
2023/03/27 01:14:31;;;;;;;3.67;2.03;;;4.20;99.90;;;;;;5156910;27;20085;-69
2023/03/27 01:17:11;;;;;;;5.68;2.20;;;4.10;99.90;;;;;;5156240;27;20102;-70
2023/03/27 01:20:03;;;;;;;4.90;2.28;;;4.10;99.90;;;;;;5156620;27;20067;-70
2023/03/27 01:22:41;;;;;;;2.83;2.00;;;4.10;99.90;;;;;;5156824;27;20054;-70
2023/03/27 01:25:10;;;;;;;7.47;2.17;;;4.10;99.90;;;;;;5159603;27;20050;-70
2023/03/27 01:28:01;;;;;;;7.20;2.83;;;4.00;99.90;;;;;;5158883;27;20413;-70
2023/03/27 01:30:35;;;;;;;3.78;2.33;;;4.00;99.90;;;;;;5139084;27;20050;-70
2023/03/27 01:33:07;;;;;;;5.30;2.50;;;4.00;99.90;;;;;;5157154;27;20078;-70
2023/03/27 01:36:00;;;;;;;5.55;2.53;;;3.90;99.90;;;;;;5156287;27;20078;-70
2023/03/27 01:38:47;;;;;;;6.68;2.55;;;3.90;99.90;;;;;;5157212;27;20057;-70
2023/03/27 01:41:34;;;;;;;6.63;2.30;;;3.90;99.90;;;;;;5156695;27;20047;-70
2023/03/27 01:44:14;;;;;;;3.78;2.00;;;3.90;99.90;;;;;;5156077;27;20138;-69
2023/03/27 01:46:52;;;;;;;3.40;1.95;;;3.90;99.90;;;;;;5156101;27;20047;-69
2023/03/27 01:49:27;;;;;;;2.95;1.90;;;4.20;99.90;;;;;;5155440;27;20172;-69
2023/03/27 01:51:58;;;;;;;4.55;1.75;;;3.90;99.90;;;;;;5156857;27;20114;-70
2023/03/27 01:54:30;;;;;;;7.18;2.53;;;3.80;99.90;;;;;;5155915;27;20468;-69
2023/03/27 01:57:14;;;;;;;8.27;2.13;;;3.80;99.90;;;;;;5155904;27;20110;-70
2023/03/27 01:59:45;;;;;;;7.32;2.72;;;3.80;99.90;;;;;;5138142;27;20046;-70
2023/03/27 02:02:26;;;;;;;4.90;2.22;;;3.80;99.90;;;;;;5156079;27;20057;-69
2023/03/27 02:04:57;;;;;;;5.13;2.25;;;3.70;99.90;;;;;;5155687;27;20038;-70
2023/03/27 02:07:37;;;;;;;6.45;2.13;;;3.70;99.90;;;;;;5155653;27;20047;-69
2023/03/27 02:10:14;;;;;;;6.07;2.20;;;3.60;99.90;;;;;;5156060;27;20053;-69
2023/03/27 02:12:45;;;;;;;4.47;2.38;;;2.60;99.90;;;;;;5155614;27;20077;-69
2023/03/27 02:15:17;;;;;;;3.22;1.88;;;3.60;99.90;;;;;;5137330;27;20073;-69
2023/03/27 02:17:48;;;;;;;4.65;1.92;;;3.50;99.90;;;;;;5155263;27;20098;-69
2023/03/27 02:20:15;;;;;;;4.30;2.03;;;3.50;99.90;;;;;;5155758;27;20125;-70
2023/03/27 02:22:47;;;;;;;4.32;1.88;;;3.50;99.90;;;;;;5155362;27;20432;-70
2023/03/27 02:25:34;;;;;;;11.63;2.65;;;3.50;99.90;;;;;;5155407;27;20039;-70
2023/03/27 02:28:06;;;;;;;5.22;1.88;;;3.50;99.90;;;;;;5155719;27;20054;-70
2023/03/27 02:31:11;;;;;;;7.45;2.75;;;3.40;99.90;;;;;;5154919;27;20496;-70
2023/03/27 02:33:41;;;;;;;4.95;1.92;;;3.40;99.90;;;;;;5155040;27;20046;-69
2023/03/27 02:36:32;;;;;;;3.60;2.28;;;3.40;99.90;;;;;;5136864;27;20057;-70
2023/03/27 02:39:24;;;;;;;9.60;3.05;;;3.50;99.90;;;;;;5155272;27;20061;-69
2023/03/27 02:42:11;;;;;;;8.80;2.70;;;3.60;99.90;;;;;;5098030;27;20078;-70
2023/03/27 02:44:50;;;;;;;6.15;2.55;;;3.70;99.90;;;;;;5155192;27;20050;-70
2023/03/27 02:47:29;;;;;;;5.75;2.33;;;3.70;99.90;;;;;;5154729;27;20046;-70
2023/03/27 02:50:04;;;;;;;6.03;2.53;;;3.70;99.90;;;;;;5155025;27;20054;-70
2023/03/27 02:52:38;;;;;;;7.03;2.63;;;3.70;99.90;;;;;;5137083;27;20054;-70
2023/03/27 02:55:13;;;;;;;7.63;2.67;;;3.70;99.90;;;;;;5155026;27;20042;-70
2023/03/27 02:57:39;;;;;;;3.90;2.40;;;3.70;99.90;;;;;;5154851;27;20038;-70
2023/03/27 03:00:13;;;;;;;5.68;2.75;;;3.70;99.90;;;;;;5154349;27;20058;-70
2023/03/27 03:02:40;;;;;;;5.68;2.80;;;3.70;99.90;;;;;;5136073;27;20057;-70
2023/03/27 03:05:11;;;;;;;3.63;2.00;;;4.10;99.90;;;;;;5136138;27;20447;-70
2023/03/27 03:07:37;;;;;;;8.10;2.70;;;3.70;99.90;;;;;;5154528;27;20058;-70
2023/03/27 03:10:07;;;;;;;8.80;3.13;;;3.80;99.90;;;;;;5154557;27;20456;-70
2023/03/27 03:12:33;;;;;;;5.70;2.17;;;3.80;99.90;;;;;;5135992;27;20042;-70
2023/03/27 03:14:59;;;;;;;4.72;2.05;;;4.20;99.90;;;;;;5154167;27;20035;-70
2023/03/27 03:17:24;;;;;;;6.85;2.88;;;3.80;99.90;;;;;;5154210;27;20061;-70
2023/03/27 03:19:50;;;;;;;8.20;2.88;;;3.80;99.90;;;;;;5154111;27;20487;-70
2023/03/27 03:22:16;;;;;;;10.35;2.38;;;3.90;99.90;;;;;;5154178;27;20054;-70
2023/03/27 03:24:42;;;;;;;7.90;2.75;;;3.80;99.90;;;;;;5154704;27;20129;-69
2023/03/27 03:27:08;;;;;;;7.03;2.55;;;3.80;99.90;;;;;;5154286;27;20095;-70
2023/03/27 03:29:35;;;;;;;4.85;2.03;;;3.80;99.90;;;;;;5153843;27;20348;-70
2023/03/27 03:32:03;;;;;;;7.90;2.30;;;3.80;99.90;;;;;;5154149;27;20125;-70
2023/03/27 03:34:29;;;;;;;7.10;2.45;;;3.80;99.90;;;;;;5154608;27;20045;-70
2023/03/27 03:36:55;;;;;;;5.60;2.25;;;3.70;99.90;;;;;;5154149;27;20144;-70
2023/03/27 03:39:21;;;;;;;9.23;2.45;;;3.90;99.90;;;;;;5154317;27;20043;-69
2023/03/27 03:41:47;;;;;;;5.72;2.13;;;3.60;99.90;;;;;;5154535;27;20046;-70
2023/03/27 03:44:13;;;;;;;5.57;2.58;;;3.90;99.90;;;;;;5153999;27;20085;-69
2023/03/27 03:46:39;;;;;;;5.70;2.47;;;3.50;99.90;;;;;;5153459;27;20372;-69
2023/03/27 03:49:05;;;;;;;6.25;2.42;;;3.40;99.90;;;;;;5153847;27;20049;-69
2023/03/27 03:51:32;;;;;;;5.80;2.95;;;4.20;99.90;;;;;;5154016;27;20118;-69
2023/03/27 03:53:58;;;;;;;4.47;2.20;;;3.40;99.90;;;;;;5154270;27;20060;-69
2023/03/27 03:56:26;;;;;;;15.70;2.90;;;3.40;99.90;;;;;;5154446;27;20038;-70
2023/03/27 03:58:52;;;;;;;5.13;2.65;;;3.20;99.90;;;;;;5135427;27;20046;-69
2023/03/27 04:01:19;;;;;;;8.80;2.65;;;3.20;99.90;;;;;;5135538;27;20065;-69
2023/03/27 04:03:47;;;;;;;5.32;2.40;;;3.10;99.90;;;;;;5153874;27;20053;-70
2023/03/27 04:06:12;;;;;;;7.30;2.55;;;3.10;99.90;;;;;;5153674;27;20095;-69
2023/03/27 04:08:38;;;;;;;6.03;2.72;;;3.20;99.90;;;;;;5154274;27;20087;-70
2023/03/27 04:11:04;;;;;;;5.22;2.35;;;3.00;99.90;;;;;;5154183;27;20047;-70
2023/03/27 04:13:30;;;;;;;7.55;2.47;;;3.00;99.90;;;;;;5157193;27;20080;-70
2023/03/27 04:16:00;;;;;;;7.38;3.15;;;3.00;99.90;;;;;;5157748;27;20061;-69
2023/03/27 04:18:29;;;;;;;8.40;3.05;;;3.40;99.90;;;;;;5157976;27;20359;-70
2023/03/27 04:20:57;;;;;;;5.72;2.65;;;3.00;99.90;;;;;;5157932;27;20043;-69
2023/03/27 04:23:29;;;;;;;5.75;2.72;;;3.20;99.90;;;;;;5157841;27;20042;-70
2023/03/27 04:26:02;;;;;;;7.20;2.85;;;3.30;99.90;;;;;;5140141;27;20059;-70
2023/03/27 04:28:33;;;;;;;5.55;3.72;;;3.20;99.90;;;;;;5157848;27;20046;-70
2023/03/27 04:31:00;;;;;;;5.85;2.80;;;3.20;99.90;;;;;;5158101;27;20050;-70
2023/03/27 04:33:25;;;;;;;6.93;2.47;;;3.30;99.90;;;;;;5157773;27;20050;-69
2023/03/27 04:35:51;;;;;;;7.55;3.72;;;3.10;99.90;;;;;;5158701;27;20087;-70
2023/03/27 04:38:18;;;;;;;7.35;3.08;;;3.70;99.90;;;;;;5158074;27;20460;-70
2023/03/27 04:40:47;;;;;;;8.52;3.58;;;3.00;99.90;;;;;;5157850;27;20098;-71
2023/03/27 04:43:15;;;;;;;5.47;2.70;;;3.00;99.90;;;;;;5157833;27;20085;-70
2023/03/27 04:45:45;;;;;;;6.13;2.97;;;3.00;99.90;;;;;;5157433;27;20090;-70
2023/03/27 04:48:11;;;;;;;5.93;2.75;;;2.80;99.90;;;;;;5138483;27;20057;-70
2023/03/27 04:50:37;;;;;;;6.63;2.65;;;2.80;99.90;;;;;;5157336;27;20051;-69
2023/03/27 04:53:02;;;;;;;5.28;2.67;;;2.80;99.90;;;;;;5157614;27;20439;-69
2023/03/27 04:55:29;;;;;;;9.88;2.92;;;2.70;99.90;;;;;;5157535;27;20123;-69
2023/03/27 04:57:56;;;;;;;9.40;3.65;;;2.70;99.90;;;;;;5138635;27;20144;-70
2023/03/27 05:00:22;;;;;;;11.27;3.83;;;3.40;99.90;;;;;;5139006;27;20114;-69
2023/03/27 05:02:54;;;;;;;4.40;2.63;;;2.70;99.90;;;;;;5157328;27;20039;-70
2023/03/27 05:05:23;;;;;;;9.68;2.85;;;2.70;99.90;;;;;;5156620;27;20046;-69
2023/03/27 05:07:50;;;;;;;11.07;3.10;;;2.80;99.90;;;;;;5156977;27;20133;-69
2023/03/27 05:10:16;;;;;;;7.93;2.90;;;2.80;99.90;;;;;;5157197;27;20057;-69
2023/03/27 05:12:43;;;;;;;6.95;2.95;;;2.80;99.90;;;;;;5156469;27;20471;-69
2023/03/27 05:15:09;;;;;;;9.02;3.53;;;3.30;99.90;;;;;;5156436;27;20049;-69
2023/03/27 05:17:42;;;;;;;7.25;3.25;;;2.80;99.90;;;;;;5156225;27;20051;-69
2023/03/27 05:20:13;;;;;;;10.57;3.42;;;2.90;99.90;;;;;;5156410;27;20043;-70
2023/03/27 05:22:42;;;;;;;6.15;2.28;;;2.90;99.90;;;;;;5156268;27;20451;-70
2023/03/27 05:25:09;;;;;;;5.47;2.88;;;2.90;99.90;;;;;;5155395;27;20180;-70
2023/03/27 05:27:35;;;;;;;10.65;2.60;;;2.90;99.90;;;;;;5156278;27;20047;-69
2023/03/27 05:30:01;;;;;;;8.50;2.40;;;3.00;99.90;;;;;;5156231;27;20133;-70
2023/03/27 05:32:26;;;;;;;4.00;2.03;;;3.00;99.90;;;;;;5137649;27;20082;-70
2023/03/27 05:34:55;;;;;;;5.10;1.63;;;3.00;99.90;;;;;;5156099;27;20075;-69
2023/03/27 05:37:21;;;;;;;3.05;1.45;;;3.60;99.90;;;;;;5156203;27;20061;-70
2023/03/27 05:39:47;;;;;;;2.30;1.00;;;3.20;99.90;;;;;;5155921;27;20053;-70
2023/03/27 05:42:13;;;;;;;3.35;1.73;;;4.00;99.90;;;;;;5156183;27;20043;-70
2023/03/27 05:44:42;;;;;;;3.05;1.38;;;3.20;99.90;;;;;;5156067;27;20117;-70
2023/03/27 05:47:09;;;;;;;4.03;1.40;;;3.30;99.90;;;;;;5155685;27;20053;-70
2023/03/27 05:49:35;;;;;;;3.40;1.50;;;3.40;99.90;;;;;;5155877;27;20054;-70
2023/03/27 05:52:01;;;;;;;3.42;1.50;;;3.50;99.90;;;;;;5155550;27;20049;-70
2023/03/27 05:54:27;;;;;;;2.50;1.17;;;3.50;99.90;;;;;;5155781;27;20092;-71
2023/03/27 05:56:53;;;;;;;4.28;1.80;;;3.60;99.90;;;;;;5155686;27;20389;-70
2023/03/27 05:59:19;;;;;;;5.10;1.83;;;3.60;99.90;;;;;;5155660;27;20038;-70
2023/03/27 06:01:44;;;;;;;3.30;1.42;;;3.60;99.90;;;;;;5155560;27;20050;-70
2023/03/27 06:04:11;;;;;;;4.57;1.30;;;3.60;99.90;;;;;;5136865;27;20047;-70
2023/03/27 06:06:37;;;;;;;4.18;2.05;;;3.60;99.90;;;;;;5155580;27;20121;-70
2023/03/27 06:09:04;;;;;;;5.00;1.75;;;3.70;99.90;;;;;;5137128;27;20530;-70
2023/03/27 06:11:30;;;;;;;5.20;2.00;;;3.60;99.90;;;;;;5156031;27;20103;-70
2023/03/27 06:13:56;;;;;;;5.95;1.80;;;3.60;99.90;;;;;;5155429;27;20053;-70
2023/03/27 06:16:21;;;;;;;5.88;1.73;;;3.90;99.90;;;;;;5155470;27;20117;-70
2023/03/27 06:18:48;;;;;;;6.78;2.17;;;3.80;99.90;;;;;;5154877;27;20055;-70
2023/03/27 06:21:14;;;;;;;7.40;1.63;;;3.70;99.90;;;;;;5155680;27;20047;-70
2023/03/27 06:23:41;;;;;;;2.60;1.77;;;3.00;99.90;;;;;;5155388;27;20046;-69
2023/03/27 06:26:07;;;;;;;4.15;1.73;;;4.00;99.90;;;;;;5155472;27;20050;-70
2023/03/27 06:28:32;;;;;;;4.18;2.30;;;3.80;99.90;;;;;;5155440;27;20129;-70
2023/03/27 06:30:58;;;;;;;3.45;2.30;;;3.90;99.90;;;;;;5155392;27;20053;-69
2023/03/27 06:33:26;;;;;;;6.72;2.38;;;3.80;99.90;;;;;;5155664;27;20079;-69
2023/03/27 06:35:58;;;;;;;4.13;2.17;;;3.90;99.90;;;;;;5155180;27;20043;-70
2023/03/27 06:38:29;;;;;;;6.05;2.28;;;4.00;99.90;;;;;;5155329;27;20047;-70
2023/03/27 06:40:55;;;;;;;4.47;1.77;;;4.00;99.90;;;;;;5155216;27;20047;-69
2023/03/27 06:43:21;;;;;;;7.30;1.90;;;4.00;99.90;;;;;;5155005;27;20034;-69
2023/03/27 06:45:48;;;;;;;4.97;2.15;;;4.00;99.90;;;;;;5137047;27;20118;-70
2023/03/27 06:48:15;;;;;;;7.00;2.05;;;5.10;99.90;;;;;;5154787;27;20039;-71
2023/03/27 06:50:43;;;;;;;4.35;2.08;;;4.20;99.90;;;;;;5136636;27;20555;-70
2023/03/27 06:53:10;;;;;;;6.18;1.92;;;4.30;99.90;;;;;;5136634;27;20129;-70
2023/03/27 06:55:36;;;;;;;4.63;2.03;;;4.30;99.90;;;;;;5154697;27;20046;-70
2023/03/27 06:58:02;;;;;;;6.10;2.03;;;4.40;99.90;;;;;;5136554;27;20121;-70
2023/03/27 07:00:32;;;;;;;7.97;2.72;;;4.50;99.90;;;;;;5154377;27;20498;-69
2023/03/27 07:03:03;;;;;;;3.15;2.58;;;4.60;99.90;;;;;;5136840;27;20050;-70
2023/03/27 07:05:32;;;;;;;4.30;2.20;;;4.70;99.90;;;;;;5154518;27;20042;-70
2023/03/27 07:07:58;;;;;;;5.82;2.20;;;4.80;99.90;;;;;;5154179;27;20569;-70
2023/03/27 07:10:24;;;;;;;5.35;2.22;;;4.80;99.90;;;;;;5154268;27;20046;-70
2023/03/27 07:12:53;;;;;;;5.00;2.10;;;5.00;99.90;;;;;;5154287;27;20479;-69
2023/03/27 07:15:19;;;;;;;3.50;2.40;;;5.10;99.90;;;;;;5154034;27;20068;-69
2023/03/27 07:17:56;;;;;;;5.25;1.85;;;5.20;99.90;;;;;;5153706;27;20057;-70
2023/03/27 07:20:23;;;;;;;9.55;2.03;;;5.30;99.90;;;;;;5154479;27;20057;-70
2023/03/27 07:22:49;;;;;;;6.43;2.47;;;5.40;99.90;;;;;;5154253;27;20053;-70
2023/03/27 07:25:15;;;;;;;4.70;2.10;;;5.40;99.90;;;;;;5153879;27;20047;-70
2023/03/27 07:27:41;;;;;;;5.00;2.10;;;5.60;99.90;;;;;;5153586;27;20043;-70
2023/03/27 07:30:08;;;;;;;5.40;2.35;;;5.60;99.90;;;;;;5153964;27;20050;-70
2023/03/27 07:32:34;;;;;;;6.25;2.30;;;5.70;99.90;;;;;;5153662;27;20042;-70
2023/03/27 07:35:00;;;;;;;3.95;1.75;;;5.90;99.90;;;;;;5153830;27;20126;-70
2023/03/27 07:37:26;;;;;;;4.90;2.80;;;6.10;99.90;;;;;;5153686;27;20123;-70
2023/03/27 07:39:52;;;;;;;5.55;2.30;;;6.20;99.90;;;;;;5153980;27;20046;-70
2023/03/27 07:42:18;;;;;;;6.00;2.00;;;6.40;99.90;;;;;;5135172;27;20039;-71
2023/03/27 07:44:44;;;;;;;5.63;2.40;;;6.40;99.90;;;;;;5153634;27;20046;-70
2023/03/27 07:47:11;;;;;;;6.18;2.42;;;6.20;99.90;;;;;;5153330;27;20042;-70
2023/03/27 07:49:37;;;;;;;7.85;3.10;;;6.90;99.90;;;;;;5153567;27;20053;-70
2023/03/27 07:52:03;;;;;;;5.47;1.67;;;8.10;99.90;;;;;;5135392;27;20122;-68
2023/03/27 07:54:30;;;;;;;4.53;1.60;;;9.00;99.90;;;;;;5153493;27;20092;-68
2023/03/27 07:56:56;;;;;;;3.33;1.90;;;9.10;95.90;;;;;;5153515;27;20054;-68
2023/03/27 07:59:22;;;;;;;3.13;1.55;;;8.40;97.70;;;;;;5153652;27;20053;-68
2023/03/27 08:01:49;;;;;;;3.80;1.77;;;7.60;99.90;;;;;;5153428;27;20088;-69
2023/03/27 08:04:18;;;;;;;2.28;1.50;;;7.50;99.90;;;;;;5154095;27;20183;-69
2023/03/27 08:06:44;;;;;;;2.45;1.40;;;7.90;99.90;;;;;;5134909;27;20039;-69
2023/03/27 08:09:09;;;;;;;2.92;1.33;;;8.60;99.90;;;;;;5153479;27;20047;-69
2023/03/27 08:11:37;;;;;;;4.22;1.85;;;8.50;99.90;;;;;;5153706;27;20039;-68
2023/03/27 08:14:03;;;;;;;2.15;1.20;;;8.00;99.30;;;;;;5154054;27;20094;-68
2023/03/27 08:16:29;;;;;;;2.05;1.17;;;8.20;99.90;;;;;;5153390;27;20420;-68
2023/03/27 08:18:56;;;;;;;2.30;1.00;;;8.40;99.90;;;;;;5154083;27;20076;-68
2023/03/27 08:21:22;;;;;;;2.00;0.88;;;9.20;97.00;;;;;;5135090;27;20059;-68
2023/03/27 08:23:48;;;;;;;2.05;1.20;;;10.50;98.90;;;;;;5135010;27;20103;-69
2023/03/27 08:26:14;;;;;;;1.90;1.35;;;11.40;98.20;;;;;;5153373;27;20066;-68
2023/03/27 08:28:41;;;;;;;2.13;0.80;;;12.60;97.50;;;;;;5153426;27;20042;-69
2023/03/27 08:31:10;;;;;;;1.05;0.90;;;12.80;94.10;;;;;;5135265;27;20058;-69
2023/03/27 08:33:36;;;;;;;1.98;1.25;;;12.90;93.10;;;;;;5153253;27;20087;-70
2023/03/27 08:36:03;;;;;;;2.00;1.15;;;12.70;91.00;;;;;;5134945;27;20035;-70
2023/03/27 08:38:32;;;;;;;1.95;1.00;;;12.60;93.50;;;;;;5153627;27;20475;-69
2023/03/27 08:40:58;;;;;;;3.42;1.42;;;12.90;94.40;;;;;;5153151;27;20042;-70
2023/03/27 08:43:29;;;;;;;2.95;1.20;;;13.20;93.50;;;;;;5153005;27;20054;-70
2023/03/27 08:46:00;;;;;;;1.45;0.93;;;13.00;94.40;;;;;;5153907;27;20074;-70
2023/03/27 08:48:35;;;;;;;1.98;1.17;;;13.30;92.10;;;;;;5153617;27;20139;-69
2023/03/27 08:51:25;;;;;;;2.25;1.20;;;13.80;92.40;;;;;;5153847;27;20099;-69
2023/03/27 08:54:00;;;;;;;5.07;1.30;;;14.00;88.60;;;;;;5153279;27;20049;-70
2023/03/27 08:56:26;;;;;;;1.90;1.17;;;14.40;90.50;;;;;;5153365;27;20090;-70
2023/03/27 08:58:52;;;;;;;3.55;1.63;;;14.30;90.80;;;;;;5153994;27;20079;-70
2023/03/27 09:01:47;;;;;;;2.50;1.15;;;14.60;90.90;;;;;;5156934;27;20042;-70
2023/03/27 09:04:35;;;;;;;3.78;1.23;;;13.60;89.00;;;;;;5126192;27;20452;-70
2023/03/27 09:07:26;;;;;;;3.97;1.23;;;13.70;87.60;;;;;;5138886;27;20049;-70
2023/03/27 09:10:10;;;;;;;3.28;1.40;;;13.70;90.70;;;;;;5155882;27;20497;-70
2023/03/27 09:12:48;;;;;;;3.85;1.58;;;13.50;93.60;;;;;;5157373;27;20054;-69
2023/03/27 09:15:37;;;;;;;4.30;1.30;;;13.30;90.20;;;;;;5156934;27;20043;-69
2023/03/27 09:18:11;;;;;;;2.90;1.00;;;12.60;90.40;;;;;;5137748;27;20435;-69
2023/03/27 09:20:44;;;;;;;3.25;1.40;;;11.90;91.60;;;;;;5139117;27;20065;-69
2023/03/27 09:23:23;;;;;;;3.83;1.35;;;11.50;91.30;;;;;;5138951;27;20038;-69
2023/03/27 09:25:55;;;;;;;3.80;1.20;;;11.00;92.30;;;;;;5156846;27;20042;-69
2023/03/27 09:28:28;;;;;;;2.00;1.42;;;10.10;93.60;;;;;;5156607;27;20047;-69
2023/03/27 09:30:53;;;;;;;4.30;1.40;;;9.80;94.80;;;;;;5156659;27;20125;-69
2023/03/27 09:33:19;;;;;;;2.42;1.00;;;9.30;93.60;;;;;;5156577;27;20101;-69
2023/03/27 09:35:46;;;;;;;4.68;1.02;;;8.80;94.30;;;;;;5156408;27;20159;-68
2023/03/27 09:38:44;;;;;;;1.33;0.98;;;9.00;94.20;;;;;;5156343;27;20129;-69
2023/03/27 09:41:23;;;;;;;4.03;1.10;;;9.90;92.90;;;;;;5121022;27;20528;-69
2023/03/27 09:44:19;;;;;;;5.63;1.52;;;10.60;91.10;;;;;;5156394;27;20086;-69
2023/03/27 09:46:50;;;;;;;1.42;0.90;;;10.30;92.40;;;;;;5156277;27;20099;-69
2023/03/27 09:49:17;;;;;;;0.75;0.75;;;9.20;92.10;;;;;;5156326;27;20043;-69
2023/03/27 09:51:49;;;;;;;1.73;1.15;;;8.40;93.40;;;;;;5155911;27;20107;-68
2023/03/27 09:54:18;;;;;;;2.30;1.15;;;8.50;93.70;;;;;;5156037;27;20050;-69
2023/03/27 09:56:53;;;;;;;2.95;0.70;;;9.80;92.10;;;;;;5156134;27;20039;-69
2023/03/27 09:59:24;;;;;;;1.73;1.30;;;10.60;88.20;;;;;;5156355;27;20035;-69
2023/03/27 10:01:56;;;;;;;1.30;0.80;;;11.30;88.00;;;;;;5156657;27;20074;-69
2023/03/27 10:04:23;;;;;;;2.17;0.88;;;10.70;88.80;;;;;;5155914;27;20081;-69
2023/03/27 10:07:08;;;;;;;3.63;1.00;;;10.70;88.20;;;;;;5155795;27;20090;-69
2023/03/27 10:09:35;;;;;;;1.73;0.80;;;10.60;90.20;;;;;;5155558;27;20050;-68
2023/03/27 10:12:16;;;;;;;1.45;0.80;;;11.30;89.80;;;;;;5155500;27;20051;-69
2023/03/27 10:14:47;;;;;;;1.88;0.80;;;11.50;90.30;;;;;;5155722;27;20125;-69
2023/03/27 10:17:25;;;;;;;2.67;1.02;;;11.90;88.20;;;;;;5137657;27;20125;-69
2023/03/27 10:20:22;;;;;;;2.55;0.80;;;11.60;86.90;;;;;;5155732;27;20492;-69
2023/03/27 10:23:05;;;;;;;2.58;0.80;;;11.30;86.50;;;;;;5155632;27;20039;-68
2023/03/27 10:25:47;;;;;;;;;;;11.50;88.30;;;;;;5155842;27;20452;-69
2023/03/27 10:28:21;;;;;;;1.85;1.00;;;10.60;87.80;;;;;;5155429;27;19949;-69
2023/03/27 10:30:58;;;;;;;3.40;1.48;;;10.10;89.30;;;;;;5137074;27;20059;-69
2023/03/27 10:33:39;;;;;;;3.45;1.20;;;9.80;90.50;;;;;;5155903;27;20063;-70
2023/03/27 10:36:07;;;;;;;1.23;0.75;;;10.70;89.50;;;;;;5155068;27;20034;-69
2023/03/27 10:38:36;;;;;;;2.15;0.93;;;11.70;90.00;;;;;;5155389;27;20414;-69
2023/03/27 10:41:13;;;;;;;1.13;0.80;;;11.20;83.20;;;;;;5154985;27;20058;-69
2023/03/27 10:43:42;;;;;;;5.95;1.58;;;11.90;84.50;;;;;;5155079;27;20054;-70
2023/03/27 10:46:14;;;;;;;3.13;1.17;;;12.30;86.00;;;;;;5155277;27;20471;-69
2023/03/27 10:48:52;;;;;;;4.57;1.50;;;11.60;86.80;;;;;;5154939;27;20046;-69
2023/03/27 10:51:32;;;;;;;3.42;1.30;;;11.40;87.80;;;;;;5154977;27;20042;-69
2023/03/27 10:54:10;;;;;;;4.18;1.02;;;11.00;89.40;;;;;;5155010;27;20043;-69
2023/03/27 10:56:56;;;;;;;2.00;0.85;;;11.00;89.00;;;;;;5155379;27;20039;-69
2023/03/27 10:59:55;;;;;;;2.17;1.00;;;10.10;84.60;;;;;;5154575;27;20055;-69
2023/03/27 11:02:34;;;;;;;4.25;1.02;;;9.50;84.20;;;;;;5063851;27;20063;-69
2023/03/27 11:05:36;;;;;;;3.42;1.00;;;9.00;90.70;;;;;;5154649;27;20043;-69
2023/03/27 11:08:07;;;;;;;1.42;0.82;;;9.00;91.60;;;;;;5144122;27;20129;-69
2023/03/27 11:10:38;;;;;;;2.47;0.93;;;8.90;90.70;;;;;;5154589;27;20046;-68
2023/03/27 11:13:27;;;;;;;3.20;1.23;;;8.70;90.70;;;;;;5154992;27;20049;-69
2023/03/27 11:16:06;;;;;;;1.58;1.10;;;8.80;90.90;;;;;;5154784;27;20067;-69
2023/03/27 11:18:39;;;;;;;2.55;1.40;;;8.70;90.60;;;;;;5153913;27;20540;-69
2023/03/27 11:21:14;;;;;;;2.70;1.23;;;8.70;90.40;;;;;;5154395;27;20087;-68
2023/03/27 11:23:55;;;;;;;1.48;1.05;;;8.70;90.80;;;;;;5154088;27;20133;-69
2023/03/27 11:26:24;;;;;;;3.47;1.27;;;8.90;91.60;;;;;;5154706;27;20122;-69
2023/03/27 11:29:04;;;;;;;4.70;1.30;;;8.90;90.40;;;;;;5153958;27;20049;-69
2023/03/27 11:31:39;;;;;;;2.70;1.90;;;8.90;91.50;;;;;;5136653;27;20046;-68
2023/03/27 11:34:21;;;;;;;3.15;1.30;;;8.70;90.90;;;;;;5154082;27;20053;-69
2023/03/27 11:36:56;;;;;;;7.57;2.50;;;8.70;91.90;;;;;;5154301;27;20046;-68
2023/03/27 11:39:21;;;;;;;3.22;1.25;;;8.90;91.80;;;;;;5154163;27;20043;-68
2023/03/27 11:41:54;;;;;;;4.20;1.30;;;8.50;93.60;;;;;;5153890;27;20151;-69
2023/03/27 11:44:20;;;;;;;2.40;1.13;;;7.90;98.90;;;;;;5154291;27;20046;-69
2023/03/27 11:46:53;;;;;;;2.45;1.30;;;7.60;99.90;;;;;;5153883;27;20387;-69
2023/03/27 11:49:18;;;;;;;1.90;1.00;;;6.90;99.90;;;;;;5136237;27;20117;-69
2023/03/27 11:52:12;;;;;;;3.47;1.08;;;6.50;99.90;;;;;;5153816;27;20482;-69
2023/03/27 11:55:05;;;;;;;2.10;1.15;;;6.40;99.90;;;;;;5154228;27;20046;-69
2023/03/27 11:57:55;;;;;;;2.40;1.33;;;6.40;99.90;;;;;;5142763;27;20111;-68
2023/03/27 12:00:48;;;;;;;4.30;1.55;;;6.60;99.90;;;;;;5127812;27;20535;-69
2023/03/27 12:03:19;;;;;;;3.10;1.80;;;6.90;99.90;;;;;;5154467;27;20122;-69
2023/03/27 12:06:05;;;;;;;4.68;2.08;;;7.10;99.90;;;;;;5154421;27;20042;-69
2023/03/27 12:08:59;;;;;;;3.95;2.15;;;7.30;99.90;;;;;;5153935;27;20082;-69
2023/03/27 12:11:41;;;;;;;5.05;1.90;;;7.50;99.90;;;;;;5135924;27;20047;-69
2023/03/27 12:14:39;;;;;;;4.57;1.45;;;7.70;99.90;;;;;;5153844;27;20122;-68
2023/03/27 12:17:37;;;;;;;4.47;1.50;;;7.80;99.80;;;;;;5134349;27;20465;-70
2023/03/27 12:20:40;;;;;;;3.88;1.55;;;7.70;99.00;;;;;;5153746;27;20054;-69
2023/03/27 12:23:21;;;;;;;5.07;1.63;;;7.60;99.60;;;;;;5153494;27;20043;-69
2023/03/27 12:26:06;;;;;;;3.33;1.38;;;7.50;97.60;;;;;;5153470;27;20035;-69
2023/03/27 12:28:50;;;;;;;5.35;1.80;;;7.60;96.10;;;;;;5153556;27;20134;-69
2023/03/27 12:31:34;;;;;;;6.80;1.83;;;7.80;95.20;;;;;;5153824;27;20043;-68
2023/03/27 12:34:53;;;;;;;3.58;1.70;;;7.90;94.90;;;;;;5155605;27;20047;-69
2023/03/27 12:37:29;;;;;;;4.63;2.08;;;8.00;94.50;;;;;;5091838;27;20096;-67
2023/03/27 12:39:58;;;;;;;6.07;2.13;;;8.20;94.70;;;;;;5157784;27;20121;-69
2023/03/27 12:42:39;;;;;;;4.05;2.03;;;8.40;95.10;;;;;;5157447;27;20119;-68
2023/03/27 12:45:18;;;;;;;4.50;1.92;;;8.50;93.50;;;;;;5157681;27;20043;-69
2023/03/27 12:48:08;;;;;;;5.07;1.40;;;8.30;94.10;;;;;;5156871;27;20442;-68
2023/03/27 12:50:42;;;;;;;2.72;1.40;;;8.20;92.90;;;;;;5157123;27;20042;-68
2023/03/27 12:53:29;;;;;;;3.55;1.55;;;8.20;93.70;;;;;;5157162;27;20058;-68
2023/03/27 12:56:16;;;;;;;4.95;1.80;;;8.00;94.10;;;;;;5138610;27;20070;-67
2023/03/27 12:58:45;;;;;;;1.90;1.70;;;8.20;94.90;;;;;;5157052;27;20077;-68
2023/03/27 13:01:25;;;;;;;3.90;2.08;;;8.20;94.70;;;;;;5156692;27;20479;-68
2023/03/27 13:04:15;;;;;;;5.30;2.20;;;8.00;94.70;;;;;;5157055;27;20114;-69
2023/03/27 13:07:06;;;;;;;5.05;1.73;;;7.90;96.60;;;;;;5157130;27;20035;-68
2023/03/27 13:09:46;;;;;;;3.90;1.48;;;7.80;94.60;;;;;;5156857;27;20049;-68
2023/03/27 13:12:27;;;;;;;5.38;1.23;;;8.30;95.20;;;;;;5156550;27;20046;-68
2023/03/27 13:15:11;;;;;;;4.55;1.20;;;7.90;94.20;;;;;;5156861;27;20118;-70
2023/03/27 13:17:58;;;;;;;2.78;1.40;;;7.80;92.80;;;;;;5156307;27;20563;-68
2023/03/27 13:20:33;;;;;;;3.08;1.63;;;8.00;94.30;;;;;;5138041;27;20057;-68
2023/03/27 13:23:28;;;;;;;6.43;2.30;;;8.10;95.00;;;;;;5138271;27;20051;-68
2023/03/27 13:26:22;;;;;;;7.53;2.47;;;8.20;94.80;;;;;;5127088;27;20099;-69